Time;durP1;ratioP1;P1;durP2;ratioP2;P2;SDS_P1;SDS_P2;PMS_P1;PMS_P2;Temp;Humidity;BMP_temperature;BMP_pressure;BME280_temperature;BME280_humidity;BME280_pressure;Samples;Min_cycle;Max_cycle;Signal;HPM_P1;HPM_P2
2021/09/14 00:02:11;;;;;;;18.90;16.90;;;24.30;51.90;;;;;;4745971;55;21467;-32
2021/09/14 00:07:11;;;;;;;18.55;16.65;;;24.30;52.00;;;;;;4736153;55;21022;-30
2021/09/14 00:12:12;;;;;;;18.75;16.75;;;24.30;51.90;;;;;;4731984;55;21080;-31
2021/09/14 00:17:13;;;;;;;18.62;16.65;;;24.30;51.90;;;;;;4757592;54;20977;-28
2021/09/14 00:22:14;;;;;;;18.12;16.15;;;24.30;52.50;;;;;;4730633;59;21146;-29
2021/09/14 00:27:15;;;;;;;19.00;17.00;;;24.30;51.90;;;;;;4776567;55;21049;-30
2021/09/14 00:32:15;;;;;;;19.20;16.35;;;24.30;51.90;;;;;;4731619;58;21075;-29
2021/09/14 00:37:16;;;;;;;19.02;17.02;;;24.30;51.90;;;;;;4739903;55;21565;-32
2021/09/14 00:42:17;;;;;;;17.35;15.45;;;24.20;51.90;;;;;;4731911;59;21645;-33
2021/09/14 00:47:18;;;;;;;18.27;16.37;;;24.20;51.90;;;;;;4773894;55;21097;-33
2021/09/14 00:52:19;;;;;;;18.17;16.35;;;24.20;51.80;;;;;;4740309;55;21013;-32
2021/09/14 00:57:19;;;;;;;20.85;16.70;;;24.20;51.90;;;;;;4732041;59;21558;-32
2021/09/14 01:02:20;;;;;;;18.80;16.80;;;24.20;51.90;;;;;;4732852;55;21049;-33
2021/09/14 01:07:22;;;;;;;17.08;15.38;;;24.20;51.80;;;;;;4733441;55;21563;-30
2021/09/14 01:12:23;;;;;;;16.67;15.00;;;24.20;51.80;;;;;;4756783;54;21064;-32
2021/09/14 01:17:27;;;;;;;17.27;15.27;;;24.20;51.90;;;;;;4731687;55;21511;-31
2021/09/14 01:22:32;;;;;;;17.25;15.52;;;24.20;51.80;;;;;;4729998;59;21080;-32
2021/09/14 01:27:34;;;;;;;16.85;15.07;;;24.20;51.80;;;;;;4731897;54;21109;-29
2021/09/14 01:32:35;;;;;;;17.23;15.50;;;24.20;51.80;;;;;;4737653;54;21077;-32
2021/09/14 01:37:36;;;;;;;16.80;15.13;;;24.20;51.80;;;;;;4731786;59;21036;-34
2021/09/14 01:42:37;;;;;;;17.12;15.32;;;24.20;51.80;;;;;;4748917;54;21008;-32
2021/09/14 01:47:39;;;;;;;16.55;14.77;;;24.20;51.80;;;;;;4737425;55;21021;-33
2021/09/14 01:52:40;;;;;;;16.27;14.35;;;24.20;52.40;;;;;;4744328;54;21097;-33
2021/09/14 01:57:42;;;;;;;16.17;14.48;;;24.20;51.80;;;;;;4745106;55;21013;-23
2021/09/14 02:33:47;;;;;;;16.20;14.55;;;24.10;51.70;;;;;;4731768;55;21049;-34
2021/09/14 03:00:06;;;;;;;14.82;13.32;;;24.10;52.40;;;;;;4730949;55;21073;-31
2021/09/14 03:05:08;;;;;;;14.75;13.20;;;24.10;51.70;;;;;;4747711;55;21010;-34
2021/09/14 03:10:09;;;;;;;15.10;13.60;;;24.10;51.70;;;;;;4763775;54;21017;-30
2021/09/14 03:15:11;;;;;;;14.70;12.93;;;24.10;51.70;;;;;;4735821;55;21081;-32
2021/09/14 03:20:12;;;;;;;14.68;13.27;;;24.10;51.70;;;;;;4741477;54;21081;-33
2021/09/14 03:25:13;;;;;;;14.90;13.27;;;24.10;51.80;;;;;;4735249;54;20994;-30
2021/09/14 03:30:14;;;;;;;14.77;13.18;;;24.10;51.70;;;;;;4748305;55;21109;-34
2021/09/14 03:35:14;;;;;;;14.05;12.55;;;24.10;51.70;;;;;;4759622;55;21092;-35
2021/09/14 03:40:15;;;;;;;14.55;13.05;;;24.10;51.80;;;;;;4737929;55;21030;-34
2021/09/14 03:45:16;;;;;;;13.60;12.30;;;24.10;51.20;;;;;;4736021;55;21021;-33
2021/09/14 03:50:17;;;;;;;13.60;12.20;;;24.10;51.70;;;;;;4736060;55;21124;-33
2021/09/14 03:55:18;;;;;;;14.40;12.80;;;24.10;51.70;;;;;;4731992;59;21005;-30
2021/09/14 04:00:19;;;;;;;14.32;12.88;;;24.10;51.70;;;;;;4763116;55;21121;-32
2021/09/14 04:10:43;;;;;;;13.68;12.27;;;24.10;51.80;;;;;;4741208;55;21093;-34
2021/09/14 04:15:44;;;;;;;13.62;12.25;;;24.10;52.40;;;;;;4731535;58;21103;-33
2021/09/14 04:20:45;;;;;;;12.93;11.63;;;24.10;51.70;;;;;;4751577;55;21038;-31
2021/09/14 04:25:46;;;;;;;13.05;11.75;;;24.00;51.80;;;;;;4731749;59;21037;-31
2021/09/14 04:30:47;;;;;;;13.02;11.73;;;24.10;51.70;;;;;;4750744;54;21495;-32
2021/09/14 04:35:47;;;;;;;14.18;12.60;;;24.00;51.60;;;;;;4756337;55;20995;-31
2021/09/14 04:40:48;;;;;;;12.93;11.65;;;24.00;51.70;;;;;;4732287;59;21029;-30
2021/09/14 04:45:49;;;;;;;12.05;10.90;;;24.00;51.70;;;;;;4756317;55;21464;-33
2021/09/14 04:50:52;;;;;;;13.27;11.95;;;24.00;51.70;;;;;;4731433;59;21634;-33
2021/09/14 04:55:53;;;;;;;12.25;11.05;;;24.00;51.70;;;;;;4753719;55;21069;-32
2021/09/14 05:00:54;;;;;;;13.52;11.63;;;24.00;51.70;;;;;;4733049;55;21028;-27
2021/09/14 05:05:56;;;;;;;12.27;11.05;;;24.00;51.70;;;;;;4753971;55;20996;-30
2021/09/14 05:10:58;;;;;;;12.65;11.35;;;24.00;51.70;;;;;;4733875;55;22091;-26
2021/09/14 05:15:59;;;;;;;12.95;11.45;;;24.00;51.70;;;;;;4766751;55;21483;-30
2021/09/14 05:21:00;;;;;;;12.57;11.27;;;24.00;51.60;;;;;;4779039;54;21114;-34
2021/09/14 05:26:03;;;;;;;12.82;11.52;;;24.00;51.50;;;;;;4760401;54;21008;-33
2021/09/14 05:31:07;;;;;;;12.80;11.50;;;24.00;51.50;;;;;;4792622;54;21041;-34
2021/09/14 05:36:08;;;;;;;12.57;11.43;;;24.00;51.50;;;;;;4744745;54;21044;-34
2021/09/14 05:41:09;;;;;;;12.93;11.63;;;24.00;51.50;;;;;;4789095;55;21496;-34
2021/09/14 05:46:10;;;;;;;13.27;11.23;;;24.00;51.50;;;;;;4744414;55;21005;-30
2021/09/14 05:51:11;;;;;;;12.25;10.95;;;23.90;51.40;;;;;;4755484;55;21009;-34
2021/09/14 05:56:12;;;;;;;12.37;11.05;;;23.90;51.50;;;;;;4744549;55;21001;-33
2021/09/14 06:01:13;;;;;;;12.18;10.98;;;23.90;51.40;;;;;;4770613;54;21045;-30
2021/09/14 06:06:14;;;;;;;12.43;11.12;;;23.90;51.30;;;;;;4732271;59;21677;-32
2021/09/14 06:11:14;;;;;;;13.55;11.50;;;24.00;51.40;;;;;;4730436;59;21017;-33
2021/09/14 06:16:16;;;;;;;12.02;10.82;;;23.90;51.30;;;;;;4747145;54;20993;-31
2021/09/14 06:21:16;;;;;;;11.80;10.60;;;24.00;51.40;;;;;;4801501;54;21053;-33
2021/09/14 06:26:17;;;;;;;12.50;11.20;;;23.90;51.30;;;;;;4755089;54;21399;-31
2021/09/14 06:31:19;;;;;;;12.45;11.20;;;23.90;51.30;;;;;;4745932;55;21108;-33
2021/09/14 06:36:21;;;;;;;12.80;11.40;;;23.90;51.30;;;;;;4837816;54;21520;-33
2021/09/14 06:41:22;;;;;;;14.32;11.25;;;23.90;51.30;;;;;;4741853;55;21013;-33
2021/09/14 06:46:23;;;;;;;12.50;10.70;;;23.90;51.30;;;;;;4731666;59;21060;-31
2021/09/14 06:51:24;;;;;;;12.52;11.20;;;23.90;51.30;;;;;;4781656;55;21014;-33
2021/09/14 06:56:24;;;;;;;13.65;12.00;;;23.90;51.40;;;;;;4743613;55;21010;-34
2021/09/14 07:01:26;;;;;;;13.20;11.68;;;23.90;51.30;;;;;;4852929;54;21088;-33
2021/09/14 07:06:27;;;;;;;13.85;11.68;;;23.90;51.30;;;;;;4732575;55;21488;-33
2021/09/14 07:11:28;;;;;;;12.75;10.80;;;23.90;51.40;;;;;;4728991;59;21065;-33
2021/09/14 07:16:29;;;;;;;14.27;11.55;;;23.90;51.50;;;;;;4731348;59;21009;-33
2021/09/14 07:21:30;;;;;;;13.55;12.15;;;23.90;51.60;;;;;;4731158;55;21057;-32
2021/09/14 07:26:30;;;;;;;17.30;12.32;;;24.00;51.80;;;;;;4758549;55;21006;-31
2021/09/14 07:31:32;;;;;;;16.02;12.25;;;24.10;52.00;;;;;;4740020;55;21491;-32
2021/09/14 07:36:33;;;;;;;14.02;12.50;;;24.10;52.10;;;;;;4775816;55;21515;-33
2021/09/14 07:41:34;;;;;;;18.17;13.38;;;24.10;52.30;;;;;;4730605;59;21069;-33
2021/09/14 07:46:35;;;;;;;14.60;13.00;;;24.10;52.30;;;;;;4731085;55;21005;-35
2021/09/14 07:51:36;;;;;;;15.27;13.68;;;24.10;52.30;;;;;;4741131;55;21013;-34
2021/09/14 07:56:36;;;;;;;15.88;13.93;;;24.20;52.30;;;;;;4735214;55;21009;-32
2021/09/14 08:01:37;;;;;;;14.82;13.15;;;24.20;52.30;;;;;;4795046;55;21017;-35
2021/09/14 08:06:38;;;;;;;18.12;14.35;;;24.20;52.10;;;;;;4774846;55;21000;-29
2021/09/14 08:11:39;;;;;;;18.73;14.18;;;24.20;52.10;;;;;;4747000;55;21013;-35
2021/09/14 08:16:40;;;;;;;17.62;14.75;;;24.20;52.50;;;;;;4741805;55;21524;-30
2021/09/14 08:21:41;;;;;;;18.05;14.75;;;24.20;52.00;;;;;;4744251;55;21041;-32
2021/09/14 08:26:41;;;;;;;17.12;14.85;;;24.20;51.90;;;;;;4795276;54;21492;-34
2021/09/14 08:31:42;;;;;;;23.35;16.10;;;24.20;51.90;;;;;;4740398;55;21120;-32
2021/09/14 08:36:43;;;;;;;20.17;15.90;;;24.20;52.00;;;;;;4737449;54;21037;-33
2021/09/14 08:41:44;;;;;;;18.23;15.32;;;24.30;52.10;;;;;;4815944;54;21044;-32
2021/09/14 08:46:46;;;;;;;20.48;16.10;;;24.30;52.30;;;;;;4736571;55;21488;-32
2021/09/14 08:51:47;;;;;;;25.10;18.95;;;24.30;52.30;;;;;;4776527;54;21174;-29
2021/09/14 08:56:47;;;;;;;38.95;31.27;;;24.30;52.40;;;;;;4798229;54;21041;-30
2021/09/14 09:02:05;;;;;;;49.20;36.88;;;24.30;52.10;;;;;;4741404;55;21510;-33
2021/09/14 09:07:06;;;;;;;61.72;44.90;;;24.30;51.90;;;;;;4745296;54;21009;-32
2021/09/14 09:12:08;;;;;;;75.35;55.15;;;24.30;51.80;;;;;;4735312;55;21480;-33
2021/09/14 09:17:17;;;;;;;78.60;56.70;;;24.40;51.60;;;;;;4740423;55;21013;-32
2021/09/14 09:22:18;;;;;;;85.90;62.47;;;24.30;51.30;;;;;;4749984;55;21006;-31
2021/09/14 09:27:22;;;;;;;91.68;63.08;;;24.40;51.20;;;;;;4758783;54;21547;-32
2021/09/14 09:32:22;;;;;;;81.90;62.92;;;24.40;51.10;;;;;;4778253;54;21014;-33
2021/09/14 09:37:25;;;;;;;84.97;61.13;;;24.40;51.20;;;;;;4743554;54;21515;-33
2021/09/14 09:42:31;;;;;;;79.55;59.88;;;24.40;51.20;;;;;;4731550;59;21001;-30
2021/09/14 09:47:32;;;;;;;75.20;56.28;;;24.40;51.30;;;;;;4740864;54;21507;-32
2021/09/14 09:52:32;;;;;;;78.65;56.50;;;24.40;51.50;;;;;;4756894;55;21021;-31
2021/09/14 09:57:33;;;;;;;77.70;55.75;;;24.50;51.30;;;;;;4745689;55;21089;-32
2021/09/14 10:02:44;;;;;;;77.07;54.95;;;24.50;51.20;;;;;;4741701;54;21033;-31
2021/09/14 10:07:47;;;;;;;76.43;56.22;;;24.50;51.30;;;;;;4740588;54;21045;-25
2021/09/14 10:12:48;;;;;;;77.70;57.42;;;24.50;51.30;;;;;;4769516;55;21009;-31
2021/09/14 10:17:54;;;;;;;69.37;53.95;;;24.50;51.30;;;;;;4772687;55;21547;-31
2021/09/14 10:22:59;;;;;;;70.87;51.97;;;24.60;51.20;;;;;;4745815;55;21113;-31
2021/09/14 10:28:11;;;;;;;64.07;47.47;;;24.70;51.30;;;;;;4751906;54;21479;-32
2021/09/14 10:33:24;;;;;;;64.62;49.28;;;24.70;51.60;;;;;;4735071;54;21113;-33
2021/09/14 10:38:25;;;;;;;61.15;47.13;;;24.60;51.60;;;;;;4747869;54;21017;-32
2021/09/14 10:43:29;;;;;;;61.88;46.78;;;24.60;52.00;;;;;;4754407;54;21179;-31
2021/09/14 10:48:34;;;;;;;61.00;46.05;;;24.60;52.00;;;;;;4730868;58;20998;-28
2021/09/14 10:53:36;;;;;;;57.28;45.00;;;24.70;52.00;;;;;;4742739;54;21137;-32
2021/09/14 10:58:43;;;;;;;54.67;44.13;;;24.70;52.30;;;;;;4742157;54;21471;-29
2021/09/14 11:03:48;;;;;;;56.53;42.40;;;24.70;52.80;;;;;;4731730;54;21464;-32
2021/09/14 11:08:56;;;;;;;56.83;44.10;;;24.70;53.30;;;;;;4793073;54;21078;-30
2021/09/14 11:13:57;;;;;;;53.08;42.25;;;24.70;53.70;;;;;;4737153;55;21012;-31
2021/09/14 11:18:59;;;;;;;57.65;40.40;;;24.80;54.00;;;;;;4756878;54;21021;-30
2021/09/14 11:24:04;;;;;;;51.42;40.97;;;24.80;54.10;;;;;;4730638;55;21498;-28
2021/09/14 11:29:04;;;;;;;53.15;39.42;;;24.90;54.40;;;;;;4729958;59;21491;-32
2021/09/14 11:34:06;;;;;;;45.58;38.40;;;24.90;54.70;;;;;;4730230;59;21037;-28
2021/09/14 11:39:07;;;;;;;48.35;39.08;;;24.90;55.00;;;;;;4773753;54;21017;-30
2021/09/14 11:44:08;;;;;;;48.92;39.45;;;24.90;55.10;;;;;;4731513;59;21455;-30
2021/09/14 11:49:09;;;;;;;48.45;39.08;;;24.90;55.30;;;;;;4751066;55;21068;-32
2021/09/14 11:54:14;;;;;;;47.55;38.33;;;25.00;55.40;;;;;;4804538;55;21487;-30
2021/09/14 11:59:16;;;;;;;47.15;39.03;;;25.00;55.20;;;;;;4805219;55;21506;-30
2021/09/14 12:04:19;;;;;;;47.78;37.60;;;25.00;55.20;;;;;;4739284;54;21102;-31
2021/09/14 12:09:21;;;;;;;45.35;36.67;;;25.00;55.10;;;;;;4760709;55;21563;-30
2021/09/14 12:14:22;;;;;;;44.75;36.78;;;24.90;55.00;;;;;;4745654;55;21116;-31
2021/09/14 12:19:23;;;;;;;43.87;35.72;;;24.90;54.90;;;;;;4780784;55;21053;-32
2021/09/14 12:24:24;;;;;;;43.53;36.72;;;24.90;54.80;;;;;;4748564;55;21577;-31
2021/09/14 12:29:25;;;;;;;45.63;35.97;;;24.90;54.80;;;;;;4731642;58;21057;-34
2021/09/14 12:34:28;;;;;;;46.00;36.58;;;24.90;54.70;;;;;;4763467;54;21135;-31
2021/09/14 12:39:29;;;;;;;45.28;35.63;;;24.90;54.70;;;;;;4795969;55;21562;-34
2021/09/14 12:44:30;;;;;;;43.10;33.78;;;24.90;54.60;;;;;;4736258;55;21089;-30
2021/09/14 12:49:32;;;;;;;41.17;33.50;;;24.90;54.60;;;;;;4770720;54;21009;-33
2021/09/14 12:54:33;;;;;;;42.53;33.60;;;24.90;54.90;;;;;;4731313;59;21511;-32
2021/09/14 12:59:34;;;;;;;40.95;33.70;;;24.90;55.00;;;;;;4738186;55;21057;-34
2021/09/14 13:04:35;;;;;;;40.00;34.35;;;25.00;55.30;;;;;;4744787;55;21479;-31
2021/09/14 13:09:35;;;;;;;41.10;34.65;;;25.00;55.40;;;;;;4744718;55;21495;-31
2021/09/14 13:19:55;;;;;;;42.40;33.38;;;25.10;55.70;;;;;;4729836;59;21730;-25
2021/09/14 13:24:56;;;;;;;42.30;33.92;;;25.10;55.80;;;;;;4785856;55;21020;-28
2021/09/14 13:29:57;;;;;;;42.10;33.33;;;25.10;56.10;;;;;;4729865;59;21048;-22
2021/09/14 13:34:58;;;;;;;39.10;32.50;;;25.10;56.20;;;;;;4734000;55;21071;-30
2021/09/14 13:39:59;;;;;;;36.97;32.58;;;25.20;56.30;;;;;;4736590;55;21020;-29
2021/09/14 13:50:10;;;;;;;38.28;33.58;;;25.20;56.60;;;;;;4750226;55;21084;-28
2021/09/14 13:55:12;;;;;;;40.42;33.05;;;25.20;56.70;;;;;;4762615;55;21033;-27
2021/09/14 14:00:14;;;;;;;37.60;32.10;;;25.20;56.80;;;;;;4731611;59;21037;-31
2021/09/14 14:05:15;;;;;;;38.25;31.30;;;25.20;56.90;;;;;;4730601;58;21053;-28
2021/09/14 14:10:16;;;;;;;37.60;33.58;;;25.20;57.00;;;;;;4730331;59;21085;-31
2021/09/14 14:15:17;;;;;;;39.63;31.73;;;25.20;57.00;;;;;;4752261;55;21045;-31
2021/09/14 14:20:18;;;;;;;37.17;31.85;;;25.30;57.20;;;;;;4730336;59;21061;-32
2021/09/14 14:25:18;;;;;;;38.33;32.25;;;25.30;57.30;;;;;;4779719;55;21005;-27
2021/09/14 14:30:19;;;;;;;36.97;31.12;;;25.30;57.60;;;;;;4730281;59;21128;-30
2021/09/14 14:35:23;;;;;;;33.88;30.23;;;25.30;57.70;;;;;;4730946;59;21510;-30
2021/09/14 14:40:25;;;;;;;35.22;29.77;;;25.30;57.70;;;;;;4732140;54;21116;-32
2021/09/14 14:45:26;;;;;;;34.80;28.80;;;25.40;57.90;;;;;;4789892;54;21076;-32
2021/09/14 14:50:28;;;;;;;32.47;28.90;;;25.40;57.90;;;;;;4735726;55;21375;-32
2021/09/14 14:55:29;;;;;;;39.13;31.20;;;25.40;58.10;;;;;;4771022;55;22157;-31
2021/09/14 15:00:29;;;;;;;33.42;29.80;;;25.40;58.20;;;;;;4748516;54;21147;-30
2021/09/14 15:05:30;;;;;;;36.65;30.73;;;25.40;58.30;;;;;;4736250;54;21543;-30
2021/09/14 15:10:31;;;;;;;34.80;30.95;;;25.50;58.40;;;;;;4737119;55;21041;-34
2021/09/14 15:15:32;;;;;;;41.67;31.33;;;25.40;58.00;;;;;;4744884;54;21057;-34
2021/09/14 15:20:33;;;;;;;34.97;30.23;;;25.30;57.90;;;;;;4750323;54;21139;-31
2021/09/14 15:25:34;;;;;;;35.75;31.10;;;25.30;57.90;;;;;;4732145;59;20997;-33
2021/09/14 15:30:51;;;;;;;35.03;30.15;;;25.30;57.90;;;;;;4745412;54;21081;-31
2021/09/14 15:35:59;;;;;;;34.38;30.62;;;25.20;57.90;;;;;;4756821;54;21487;-34
2021/09/14 15:41:05;;;;;;;34.95;30.02;;;25.20;57.80;;;;;;4731227;59;21464;-32
2021/09/14 15:46:08;;;;;;;35.63;30.45;;;25.20;57.70;;;;;;4731241;58;21128;-32
2021/09/14 15:51:09;;;;;;;36.10;29.35;;;25.10;57.70;;;;;;4739675;54;21140;-32
2021/09/14 15:56:12;;;;;;;35.00;29.30;;;25.10;57.70;;;;;;4756763;54;21077;-33
2021/09/14 16:01:13;;;;;;;33.10;29.35;;;25.10;57.70;;;;;;4731151;55;21551;-32
2021/09/14 16:06:14;;;;;;;36.20;30.17;;;25.00;57.60;;;;;;4736948;54;21128;-32
2021/09/14 16:11:15;;;;;;;33.03;29.55;;;25.00;57.60;;;;;;4753360;55;21073;-31
2021/09/14 16:16:16;;;;;;;34.42;29.95;;;25.00;57.60;;;;;;4744492;55;21021;-32
2021/09/14 16:21:18;;;;;;;33.47;29.83;;;25.00;57.60;;;;;;4777657;54;21041;-31
2021/09/14 16:26:18;;;;;;;33.00;29.37;;;24.90;57.50;;;;;;4745982;55;21475;-31
2021/09/14 16:31:20;;;;;;;33.42;29.33;;;24.90;57.40;;;;;;4776185;55;21112;-32
2021/09/14 16:36:21;;;;;;;33.90;28.85;;;24.90;57.40;;;;;;4731180;54;21005;-33
2021/09/14 16:41:22;;;;;;;33.00;29.42;;;24.90;57.40;;;;;;4735258;55;21048;-32
2021/09/14 16:46:23;;;;;;;32.55;29.08;;;24.90;57.30;;;;;;4744851;55;20985;-29
2021/09/14 16:51:24;;;;;;;31.58;28.08;;;24.90;57.40;;;;;;4760792;55;21049;-30
2021/09/14 16:56:26;;;;;;;33.35;29.73;;;24.90;57.40;;;;;;4802291;54;21017;-27
2021/09/14 17:01:26;;;;;;;32.63;28.42;;;24.90;57.50;;;;;;4739634;55;21487;-31
2021/09/14 17:06:27;;;;;;;31.85;28.38;;;24.80;57.20;;;;;;4753501;55;21092;-33
2021/09/14 17:11:28;;;;;;;32.35;28.85;;;24.80;57.10;;;;;;4737241;55;21005;-32
2021/09/14 17:16:29;;;;;;;31.77;28.15;;;24.80;57.10;;;;;;4758108;54;21535;-30
2021/09/14 17:21:31;;;;;;;31.55;28.15;;;24.80;57.10;;;;;;4730420;55;21030;-30
2021/09/14 17:26:32;;;;;;;31.92;28.55;;;24.80;57.10;;;;;;4770866;55;21898;-34
2021/09/14 17:31:33;;;;;;;32.75;29.23;;;24.80;57.00;;;;;;4751342;55;20986;-33
2021/09/14 17:36:34;;;;;;;32.03;28.38;;;24.80;57.00;;;;;;4748616;55;21380;-34
2021/09/14 17:41:35;;;;;;;32.00;28.60;;;24.80;57.00;;;;;;4750136;55;21017;-33
2021/09/14 17:46:36;;;;;;;33.05;29.45;;;24.80;56.90;;;;;;4752618;55;21114;-31
2021/09/14 17:51:37;;;;;;;30.88;27.65;;;24.80;56.90;;;;;;4752445;55;21033;-29
2021/09/14 17:56:38;;;;;;;31.50;28.20;;;24.80;56.90;;;;;;4754740;55;21120;-30
2021/09/14 18:01:38;;;;;;;32.42;28.92;;;24.80;56.90;;;;;;4768357;54;20965;-32
2021/09/14 18:06:44;;;;;;;31.75;28.35;;;24.80;56.90;;;;;;4787009;55;20997;-32
2021/09/14 18:11:45;;;;;;;30.58;27.37;;;24.70;56.80;;;;;;4749238;55;21698;-28
2021/09/14 18:16:45;;;;;;;31.80;28.48;;;24.70;56.80;;;;;;4744405;55;21005;-32
2021/09/14 18:21:46;;;;;;;30.35;27.13;;;24.70;56.80;;;;;;4735895;55;21128;-31
2021/09/14 18:26:47;;;;;;;30.80;27.55;;;24.70;56.80;;;;;;4744836;54;21032;-30
2021/09/14 18:31:48;;;;;;;30.55;27.40;;;24.70;56.80;;;;;;4767609;55;21516;-24
2021/09/14 18:36:49;;;;;;;31.62;28.33;;;24.70;56.70;;;;;;4751575;55;20994;-32
2021/09/14 18:41:50;;;;;;;30.37;27.27;;;24.70;56.70;;;;;;4740964;55;21096;-31
2021/09/14 18:46:51;;;;;;;32.05;28.75;;;24.70;56.70;;;;;;4746916;55;21014;-34
2021/09/14 18:51:51;;;;;;;29.85;26.73;;;24.70;56.70;;;;;;4738374;55;21085;-34
2021/09/14 18:56:52;;;;;;;30.83;27.55;;;24.70;56.70;;;;;;4731659;59;21029;-33
2021/09/14 19:01:53;;;;;;;30.88;27.67;;;24.70;56.70;;;;;;4748012;55;21504;-35
2021/09/14 19:06:55;;;;;;;31.35;28.05;;;24.70;56.60;;;;;;4730983;59;21570;-33
2021/09/14 19:11:56;;;;;;;32.15;28.77;;;24.70;56.60;;;;;;4795357;54;22658;-33
2021/09/14 19:16:58;;;;;;;30.67;27.40;;;24.70;56.60;;;;;;4731142;59;21121;-31
2021/09/14 19:21:59;;;;;;;30.95;27.75;;;24.70;56.60;;;;;;4737714;55;21671;-31
2021/09/14 19:27:00;;;;;;;30.52;27.25;;;24.70;56.60;;;;;;4738272;55;21061;-33
2021/09/14 19:32:01;;;;;;;30.52;27.23;;;24.70;56.50;;;;;;4730745;59;21042;-34
2021/09/14 19:37:02;;;;;;;30.25;27.13;;;24.70;56.50;;;;;;4738367;55;20977;-32
2021/09/14 19:42:03;;;;;;;32.00;27.98;;;24.70;56.50;;;;;;4732401;55;21076;-33
2021/09/14 19:47:05;;;;;;;31.87;26.90;;;24.70;56.50;;;;;;4763708;55;21503;-32
2021/09/14 19:52:07;;;;;;;30.12;26.87;;;24.70;56.50;;;;;;4730675;56;21017;-32
2021/09/14 19:57:08;;;;;;;30.52;26.98;;;24.70;56.40;;;;;;4752063;54;21053;-32
2021/09/14 20:02:09;;;;;;;30.90;27.60;;;24.70;56.40;;;;;;4771261;54;21133;-32
2021/09/14 20:07:09;;;;;;;30.15;26.92;;;24.70;56.40;;;;;;4747707;55;21037;-27
2021/09/14 20:12:10;;;;;;;29.67;26.58;;;24.70;56.40;;;;;;4778361;55;21045;-32
2021/09/14 20:17:11;;;;;;;29.02;25.95;;;24.70;56.40;;;;;;4746579;54;21095;-34
2021/09/14 20:22:12;;;;;;;29.75;26.65;;;24.70;56.40;;;;;;4730291;59;21076;-32
2021/09/14 20:27:14;;;;;;;29.83;26.42;;;24.70;56.30;;;;;;4748061;54;21511;-34
2021/09/14 20:32:16;;;;;;;30.90;26.75;;;24.70;56.30;;;;;;4744786;54;21001;-33
2021/09/14 20:37:17;;;;;;;29.12;25.92;;;24.70;56.30;;;;;;4741667;54;21005;-33
2021/09/14 20:42:18;;;;;;;29.10;26.00;;;24.70;56.30;;;;;;4731920;59;21072;-36
2021/09/14 20:47:19;;;;;;;28.60;25.30;;;24.70;56.30;;;;;;4731457;59;21166;-34
2021/09/14 20:52:20;;;;;;;29.00;25.90;;;24.70;56.30;;;;;;4769603;54;21016;-34
2021/09/14 20:57:22;;;;;;;28.55;25.55;;;24.70;56.20;;;;;;4759922;55;22296;-32
2021/09/14 21:02:22;;;;;;;27.15;24.27;;;24.70;56.30;;;;;;4742618;54;21535;-33
2021/09/14 21:07:23;;;;;;;28.23;25.23;;;24.70;56.20;;;;;;4733925;55;21049;-35
2021/09/14 21:12:24;;;;;;;27.87;24.83;;;24.70;56.80;;;;;;4745311;55;21574;-34
2021/09/14 21:17:26;;;;;;;27.13;24.27;;;24.70;56.30;;;;;;4731041;59;21014;-31
2021/09/14 21:22:27;;;;;;;27.27;24.42;;;24.70;56.20;;;;;;4732930;54;21049;-32
2021/09/14 21:27:28;;;;;;;28.55;25.55;;;24.70;56.20;;;;;;4768998;54;21045;-31
2021/09/14 21:32:29;;;;;;;26.67;23.85;;;24.70;56.20;;;;;;4767022;54;21538;-34
2021/09/14 21:37:30;;;;;;;27.25;24.35;;;24.70;56.30;;;;;;4744807;54;21065;-31
2021/09/14 21:42:31;;;;;;;27.10;24.20;;;24.60;56.10;;;;;;4761928;55;21033;-32
2021/09/14 21:47:32;;;;;;;28.00;23.85;;;24.70;56.10;;;;;;4742905;55;21087;-32
2021/09/14 21:52:33;;;;;;;26.87;24.05;;;24.70;56.10;;;;;;4734123;55;21000;-33
2021/09/14 21:57:34;;;;;;;26.75;23.85;;;24.60;56.10;;;;;;4757354;55;21017;-32
2021/09/14 22:02:35;;;;;;;27.35;24.45;;;24.60;56.10;;;;;;4745920;55;21054;-32
2021/09/14 22:07:35;;;;;;;26.17;23.38;;;24.70;56.10;;;;;;4731618;59;21491;-29
2021/09/14 22:12:36;;;;;;;25.95;23.15;;;24.70;56.10;;;;;;4748716;55;20989;-33
2021/09/14 22:17:37;;;;;;;27.42;23.27;;;24.60;56.00;;;;;;4771932;55;21073;-34
2021/09/14 22:22:38;;;;;;;26.85;24.05;;;24.60;56.00;;;;;;4745323;55;21036;-32
2021/09/14 22:27:41;;;;;;;25.27;22.67;;;24.60;56.20;;;;;;4752952;54;21146;-34
2021/09/14 22:32:42;;;;;;;25.62;22.92;;;24.60;56.00;;;;;;4849739;54;21484;-33
2021/09/14 22:37:43;;;;;;;25.12;22.50;;;24.70;56.20;;;;;;4775168;54;21033;-34
2021/09/14 22:42:44;;;;;;;25.17;22.52;;;24.60;56.00;;;;;;4746654;55;21048;-31
2021/09/14 22:47:44;;;;;;;24.15;21.40;;;24.70;56.00;;;;;;4761342;55;21088;-33
2021/09/14 22:52:45;;;;;;;24.12;21.62;;;24.70;56.00;;;;;;4754858;55;20997;-32
2021/09/14 22:57:46;;;;;;;24.48;21.77;;;24.60;56.00;;;;;;4749348;55;21072;-32
2021/09/14 23:02:47;;;;;;;25.05;22.48;;;24.60;56.00;;;;;;4762063;55;21499;-33
2021/09/14 23:07:48;;;;;;;24.23;21.60;;;24.70;56.10;;;;;;4734975;55;21061;-32
2021/09/14 23:12:48;;;;;;;24.08;21.58;;;24.60;56.00;;;;;;4751339;55;21036;-33
2021/09/14 23:17:49;;;;;;;24.45;21.95;;;24.60;55.90;;;;;;4746854;55;21066;-33
2021/09/14 23:22:50;;;;;;;23.27;20.77;;;24.70;55.90;;;;;;4731444;59;21917;-29
2021/09/14 23:27:51;;;;;;;23.67;21.27;;;24.60;56.00;;;;;;4750664;55;21084;-35
2021/09/14 23:32:52;;;;;;;24.25;21.75;;;24.60;55.90;;;;;;4754471;54;21012;-28
2021/09/14 23:37:52;;;;;;;23.55;21.05;;;24.60;55.90;;;;;;4738674;54;20989;-32
2021/09/14 23:42:53;;;;;;;23.17;20.70;;;24.60;55.90;;;;;;4755580;55;21021;-32
2021/09/14 23:47:54;;;;;;;22.65;20.45;;;24.60;55.90;;;;;;4732765;55;21551;-32
2021/09/14 23:52:55;;;;;;;21.87;19.67;;;24.60;55.90;;;;;;4739904;54;21054;-30
2021/09/14 23:57:56;;;;;;;22.48;20.20;;;24.60;55.80;;;;;;4732871;55;21032;-31
